Time;durP1;ratioP1;P1;durP2;ratioP2;P2;SDS_P1;SDS_P2;PMS_P1;PMS_P2;Temp;Humidity;BMP_temperature;BMP_pressure;BME280_temperature;BME280_humidity;BME280_pressure;Samples;Min_cycle;Max_cycle;Signal;HPM_P1;HPM_P2
2023/01/15 00:01:23;;;;;;;;;;;7.50;99.90;;;;;;8361063;28;19935;-74
2023/01/15 00:05:25;;;;;;;;;;;7.50;99.90;;;;;;8392167;28;19931;-74
2023/01/15 00:09:27;;;;;;;;;;;7.50;99.90;;;;;;8367515;28;19924;-74
2023/01/15 00:13:28;;;;;;;;;;;7.50;99.90;;;;;;8353391;28;20366;-74
2023/01/15 00:17:30;;;;;;;;;;;7.50;99.90;;;;;;8390776;28;19924;-74
2023/01/15 00:21:32;;;;;;;;;;;7.50;99.90;;;;;;8370869;28;20385;-74
2023/01/15 00:29:54;;;;;;;;;;;7.50;99.90;;;;;;8354169;28;20402;-74
2023/01/15 00:33:55;;;;;;;;;;;7.50;99.90;;;;;;8396292;28;19925;-74
2023/01/15 00:37:57;;;;;;;;;;;7.50;99.90;;;;;;8363568;28;19936;-75
2023/01/15 00:41:58;;;;;;;;;;;7.50;99.90;;;;;;8374098;28;19929;-75
2023/01/15 00:46:00;;;;;;;;;;;7.50;99.90;;;;;;8353996;28;19932;-74
2023/01/15 00:50:02;;;;;;;;;;;7.50;99.90;;;;;;8359866;28;19924;-75
2023/01/15 00:54:04;;;;;;;;;;;7.50;99.90;;;;;;8396073;28;19932;-74
2023/01/15 00:58:06;;;;;;;;;;;7.40;99.90;;;;;;8363157;28;20696;-75
2023/01/15 01:02:07;;;;;;;;;;;7.40;99.90;;;;;;8372324;28;20015;-74
2023/01/15 01:06:09;;;;;;;;;;;7.40;99.90;;;;;;8359613;28;19933;-74
2023/01/15 01:10:11;;;;;;;;;;;7.40;99.90;;;;;;8356892;28;19924;-75
2023/01/15 01:14:13;;;;;;;;;;;7.40;99.90;;;;;;8363786;28;19925;-75
2023/01/15 01:18:14;;;;;;;;;;;7.40;99.90;;;;;;8368389;28;20372;-75
2023/01/15 01:22:16;;;;;;;;;;;7.30;99.90;;;;;;8383642;28;19967;-75
2023/01/15 01:26:18;;;;;;;;;;;7.30;99.90;;;;;;8385324;28;19982;-75
2023/01/15 01:30:19;;;;;;;;;;;7.30;99.90;;;;;;8361890;28;19990;-75
2023/01/15 01:34:21;;;;;;;;;;;7.30;99.90;;;;;;8396674;28;19925;-74
2023/01/15 01:38:23;;;;;;;;;;;7.30;99.90;;;;;;8393757;28;19924;-75
2023/01/15 01:42:25;;;;;;;;;;;7.30;99.90;;;;;;8391973;28;19924;-75
2023/01/15 01:46:27;;;;;;;;;;;7.30;99.90;;;;;;8363410;28;20033;-75
2023/01/15 01:50:31;;;;;;;;;;;7.20;99.90;;;;;;8383554;28;20045;-75
2023/01/15 01:54:33;;;;;;;;;;;7.20;99.90;;;;;;8370549;28;19977;-75
2023/01/15 01:58:35;;;;;;;;;;;7.20;99.90;;;;;;8373538;28;20269;-75
2023/01/15 02:02:37;;;;;;;;;;;7.20;99.90;;;;;;8383335;28;19930;-75
2023/01/15 02:06:40;;;;;;;;;;;7.20;99.90;;;;;;8372694;28;19978;-75
2023/01/15 02:10:42;;;;;;;;;;;7.20;99.90;;;;;;8387102;28;20305;-74
2023/01/15 02:14:51;;;;;;;;;;;7.20;99.90;;;;;;8384126;28;19954;-75
2023/01/15 02:19:03;;;;;;;;;;;7.20;99.90;;;;;;8371478;28;19925;-75
2023/01/15 02:23:22;;;;;;;;;;;7.20;99.90;;;;;;8387003;28;19952;-75
2023/01/15 02:27:24;;;;;;;;;;;7.20;99.90;;;;;;8383542;28;19925;-75
2023/01/15 02:31:32;;;;;;;;;;;7.20;99.90;;;;;;8371042;28;19925;-75
2023/01/15 02:35:40;;;;;;;;;;;7.20;99.90;;;;;;8368967;28;20303;-75
2023/01/15 02:39:44;;;;;;;;;;;7.20;99.90;;;;;;8387259;28;19971;-74
2023/01/15 02:43:48;;;;;;;;;;;7.10;99.90;;;;;;8371240;28;19924;-75
2023/01/15 02:47:51;;;;;;;;;;;7.10;99.90;;;;;;8386139;28;19932;-75
2023/01/15 02:52:05;;;;;;;;;;;7.10;99.90;;;;;;8365225;28;19987;-74
2023/01/15 02:56:15;;;;;;;;;;;7.10;99.90;;;;;;8367062;28;19936;-76
2023/01/15 03:00:18;;;;;;;;;;;7.10;99.90;;;;;;8380613;28;20395;-75
2023/01/15 03:04:40;;;;;;;;;;;7.10;99.90;;;;;;8370715;28;20067;-75
2023/01/15 03:18:57;;;;;;;;;;;7.00;99.90;;;;;;8375227;28;19935;-75
2023/01/15 03:23:05;;;;;;;;;;;7.00;99.90;;;;;;8379835;28;20006;-75
2023/01/15 03:27:06;;;;;;;;;;;7.00;99.90;;;;;;8374383;28;19928;-74
2023/01/15 03:31:08;;;;;;;;;;;7.00;99.90;;;;;;8377823;28;20430;-75
2023/01/15 03:35:28;;;;;;;;;;;6.90;99.90;;;;;;8377593;28;19932;-75
2023/01/15 03:39:30;;;;;;;;;;;6.90;99.90;;;;;;8382655;28;19927;-74
2023/01/15 03:43:40;;;;;;;;;;;6.90;99.90;;;;;;8365243;28;20242;-75
2023/01/15 03:47:57;;;;;;;;;;;6.90;99.90;;;;;;8363703;28;19936;-75
2023/01/15 03:51:59;;;;;;;;;;;6.90;99.90;;;;;;8389411;28;20392;-75
2023/01/15 03:56:18;;;;;;;;;;;6.90;99.90;;;;;;8364407;28;19943;-75
2023/01/15 04:00:21;;;;;;;;;;;6.90;99.90;;;;;;8366323;28;20449;-75
2023/01/15 04:04:24;;;;;;;;;;;6.80;99.90;;;;;;8375892;28;19925;-75
2023/01/15 04:08:31;;;;;;;;;;;6.80;99.90;;;;;;8380011;28;19978;-75
2023/01/15 04:12:33;;;;;;;;;;;6.80;99.90;;;;;;8377542;28;19924;-75
2023/01/15 04:16:35;;;;;;;;;;;6.70;99.90;;;;;;8384300;28;20277;-75
2023/01/15 04:20:36;;;;;;;;;;;6.60;99.90;;;;;;8379803;28;19924;-75
2023/01/15 04:24:38;;;;;;;;;;;6.60;99.90;;;;;;8390288;28;19971;-75
2023/01/15 04:28:40;;;;;;;;;;;6.60;99.90;;;;;;8378230;28;19924;-75
2023/01/15 04:32:42;;;;;;;;;;;6.50;99.90;;;;;;8378087;28;19924;-75
2023/01/15 04:36:45;;;;;;;;;;;6.50;99.90;;;;;;8384338;28;19979;-75
2023/01/15 04:45:07;;;;;;;;;;;6.60;99.90;;;;;;8380787;28;19935;-74
2023/01/15 04:49:10;;;;;;;;;;;6.60;99.90;;;;;;8393460;28;20291;-74
2023/01/15 04:53:12;;;;;;;;;;;6.60;99.90;;;;;;8381041;28;20348;-75
2023/01/15 04:57:14;;;;;;;;;;;6.60;99.90;;;;;;8382564;28;20433;-75
2023/01/15 05:01:16;;;;;;;;;;;6.60;99.90;;;;;;8385955;28;19925;-75
2023/01/15 05:05:17;;;;;;;;;;;6.50;99.90;;;;;;8376535;28;19969;-75
2023/01/15 05:09:19;;;;;;;;;;;6.50;99.90;;;;;;8384414;28;19939;-75
2023/01/15 05:13:21;;;;;;;;;;;6.50;99.90;;;;;;8384056;28;19932;-75
2023/01/15 05:17:22;;;;;;;;;;;6.50;99.90;;;;;;8378788;28;20425;-75
2023/01/15 05:21:25;;;;;;;;;;;6.50;99.90;;;;;;8388565;28;21768;-74
2023/01/15 05:25:27;;;;;;;;;;;6.50;99.90;;;;;;8370886;28;19939;-74
2023/01/15 05:29:28;;;;;;;;;;;6.50;99.90;;;;;;8394858;28;20398;-75
2023/01/15 05:33:30;;;;;;;;;;;6.50;99.90;;;;;;8400699;28;19978;-75
2023/01/15 05:37:32;;;;;;;;;;;6.50;99.90;;;;;;8369835;28;19979;-75
2023/01/15 05:41:48;;;;;;;;;;;6.50;99.90;;;;;;8381984;28;19984;-75
2023/01/15 05:45:50;;;;;;;;;;;6.50;99.90;;;;;;8369080;28;19924;-74
2023/01/15 05:49:52;;;;;;;;;;;6.50;99.90;;;;;;8380908;28;19950;-75
2023/01/15 05:53:55;;;;;;;;;;;6.50;99.90;;;;;;8380964;28;19936;-75
2023/01/15 05:57:57;;;;;;;;;;;6.50;99.90;;;;;;8392504;28;19932;-75
2023/01/15 06:01:59;;;;;;;;;;;6.50;99.90;;;;;;8381728;28;19924;-75
2023/01/15 06:06:01;;;;;;;;;;;6.40;99.90;;;;;;8383412;28;19959;-75
2023/01/15 06:10:03;;;;;;;;;;;6.30;99.90;;;;;;8365749;28;20375;-75
2023/01/15 06:14:04;;;;;;;;;;;6.30;99.90;;;;;;8369901;28;19932;-75
2023/01/15 06:18:06;;;;;;;;;;;6.30;99.90;;;;;;8391981;28;19979;-74
2023/01/15 06:22:08;;;;;;;;;;;6.20;99.90;;;;;;8368067;28;19924;-75
2023/01/15 06:26:12;;;;;;;;;;;6.20;99.90;;;;;;8373132;28;19932;-75
2023/01/15 06:30:14;;;;;;;;;;;6.20;99.90;;;;;;8377442;28;19971;-75
2023/01/15 06:34:16;;;;;;;;;;;6.20;99.90;;;;;;8370031;28;19935;-74
2023/01/15 06:38:18;;;;;;;;;;;6.20;99.90;;;;;;8382374;28;19931;-75
2023/01/15 06:47:23;;;;;;;;;;;6.20;99.90;;;;;;8384150;28;20006;-74
2023/01/15 06:51:25;;;;;;;;;;;6.10;99.90;;;;;;8386497;28;19924;-75
2023/01/15 07:00:23;;;;;;;;;;;6.00;99.90;;;;;;8380656;28;19966;-74
2023/01/15 07:04:25;;;;;;;;;;;6.00;99.90;;;;;;8375079;28;19931;-75
2023/01/15 07:08:27;;;;;;;;;;;6.00;99.90;;;;;;8371670;28;19928;-75
2023/01/15 07:12:29;;;;;;;;;;;5.90;99.90;;;;;;8386636;28;19960;-75
2023/01/15 07:16:31;;;;;;;;;;;5.90;99.90;;;;;;8377844;28;19989;-74
2023/01/15 07:20:33;;;;;;;;;;;5.80;99.90;;;;;;8387339;28;19928;-74
2023/01/15 07:29:32;;;;;;;;;;;5.80;99.90;;;;;;8380723;28;19924;-74
2023/01/15 07:33:33;;;;;;;;;;;5.70;99.90;;;;;;8389497;28;19932;-74
2023/01/15 07:37:35;;;;;;;;;;;5.70;99.90;;;;;;8382581;28;19929;-75
2023/01/15 07:51:01;;;;;;;;;;;5.70;99.90;;;;;;8391719;28;20434;-75
2023/01/15 07:55:02;;;;;;;;;;;5.70;99.90;;;;;;8366839;28;19939;-75
2023/01/15 07:59:04;;;;;;;;;;;5.60;99.90;;;;;;8386061;28;20011;-75
2023/01/15 08:03:06;;;;;;;;;;;5.60;99.90;;;;;;8384120;28;19931;-74
2023/01/15 08:07:11;;;;;;;;;;;5.50;99.90;;;;;;8386129;28;20314;-74
2023/01/15 08:15:37;;;;;;;;;;;5.60;99.90;;;;;;8376374;28;19925;-74
2023/01/15 08:19:38;;;;;;;;;;;5.60;99.90;;;;;;8382532;28;19956;-75
2023/01/15 08:23:42;;;;;;;;;;;5.60;99.90;;;;;;8379571;28;20403;-75
2023/01/15 08:27:44;;;;;;;;;;;5.70;99.90;;;;;;8392302;28;19925;-74
2023/01/15 08:31:45;;;;;;;;;;;5.80;99.90;;;;;;8362010;28;19924;-74
2023/01/15 08:35:48;;;;;;;;;;;5.80;99.90;;;;;;8363813;28;19928;-74
2023/01/15 08:39:51;;;;;;;;;;;5.80;99.90;;;;;;8376444;28;19925;-75
2023/01/15 08:43:53;;;;;;;;;;;5.80;99.90;;;;;;8390372;28;19932;-75
2023/01/15 08:47:56;;;;;;;;;;;5.80;99.90;;;;;;8387677;28;20375;-75
2023/01/15 08:51:59;;;;;;;;;;;5.90;99.90;;;;;;8383478;28;19932;-74
2023/01/15 08:56:01;;;;;;;;;;;5.90;99.90;;;;;;8373991;28;19933;-75
2023/01/15 09:00:04;;;;;;;;;;;5.90;99.90;;;;;;8386172;28;19925;-74
2023/01/15 09:04:05;;;;;;;;;;;5.90;99.90;;;;;;8403465;28;19929;-74
2023/01/15 09:08:07;;;;;;;;;;;6.00;99.90;;;;;;8393876;28;19931;-75
2023/01/15 09:12:09;;;;;;;;;;;6.10;99.90;;;;;;8389833;28;19929;-75
2023/01/15 09:16:10;;;;;;;;;;;6.20;99.90;;;;;;8391057;28;19925;-75
2023/01/15 09:20:13;;;;;;;;;;;6.30;99.90;;;;;;8390763;28;19928;-75
2023/01/15 09:24:14;;;;;;;;;;;6.40;99.90;;;;;;8390807;28;20354;-75
2023/01/15 09:28:16;;;;;;;;;;;6.50;99.90;;;;;;8386961;28;19959;-74
2023/01/15 09:32:18;;;;;;;;;;;6.70;99.90;;;;;;8391657;28;19935;-74
2023/01/15 09:36:29;;;;;;;;;;;6.90;99.90;;;;;;8385145;28;19937;-74
2023/01/15 09:55:47;;;;;;;;;;;6.80;99.90;;;;;;8357770;28;19982;-75
2023/01/15 09:59:50;;;;;;;;;;;6.80;99.90;;;;;;8347526;28;19925;-75
2023/01/15 10:03:56;;;;;;;;;;;6.90;99.90;;;;;;8341321;28;19936;-74
2023/01/15 10:08:02;;;;;;;;;;;6.90;99.90;;;;;;8349333;28;20339;-74
2023/01/15 10:12:38;;;;;;;;;;;7.00;99.90;;;;;;8352464;28;20849;-75
2023/01/15 10:16:40;;;;;;;;;;;7.10;99.90;;;;;;8357814;28;19975;-75
2023/01/15 10:20:48;;;;;;;;;;;7.30;99.90;;;;;;8342512;28;20035;-75
2023/01/15 10:24:55;;;;;;;;;;;7.50;99.90;;;;;;8352294;28;19940;-74
2023/01/15 10:29:02;;;;;;;;;;;7.60;99.90;;;;;;8348518;28;20431;-75
2023/01/15 10:33:14;;;;;;;;;;;7.70;99.90;;;;;;8351823;28;19968;-74
2023/01/15 10:37:16;;;;;;;;;;;7.60;99.90;;;;;;8346815;28;19933;-75
2023/01/15 10:41:27;;;;;;;;;;;7.60;99.90;;;;;;8362794;28;19960;-75
2023/01/15 10:55:39;;;;;;;;;;;7.30;99.90;;;;;;8362515;28;20312;-74
2023/01/15 10:59:46;;;;;;;;;;;7.30;99.90;;;;;;8365524;28;20011;-75
2023/01/15 11:03:48;;;;;;;;;;;7.40;99.90;;;;;;8359742;28;19929;-74
2023/01/15 11:07:51;;;;;;;;;;;7.50;99.90;;;;;;8387863;28;19924;-74
2023/01/15 11:19:35;;;;;;;;;;;8.10;99.90;;;;;;8379112;28;19947;-74
2023/01/15 11:26:22;;;;;;;;;;;7.90;99.90;;;;;;8371407;28;20390;-74
2023/01/15 11:30:26;;;;;;;;;;;7.80;99.90;;;;;;8384403;28;20272;-75
2023/01/15 11:34:27;;;;;;;;;;;7.70;99.90;;;;;;8375843;28;19928;-74
2023/01/15 11:38:30;;;;;;;;;;;7.60;99.90;;;;;;8359435;28;20023;-75
2023/01/15 11:51:15;;;;;;;;;;;7.30;99.90;;;;;;8375562;28;19928;-75
2023/01/15 11:55:18;;;;;;;;;;;7.30;99.90;;;;;;8379364;28;19928;-75
2023/01/15 11:59:20;;;;;;;;;;;7.30;99.90;;;;;;8392956;28;19939;-74
2023/01/15 12:03:24;;;;;;;;;;;7.30;99.90;;;;;;8384473;28;20011;-74
2023/01/15 12:07:25;;;;;;;;;;;7.40;99.90;;;;;;8384473;28;19925;-74
2023/01/15 12:11:35;;;;;;;;;;;7.50;99.90;;;;;;8386366;28;19978;-75
2023/01/15 12:15:55;;;;;;;;;;;7.60;99.90;;;;;;8382353;28;20011;-75
2023/01/15 12:20:03;;;;;;;;;;;7.50;99.90;;;;;;8370201;28;20384;-75
2023/01/15 12:24:13;;;;;;;;;;;7.10;99.90;;;;;;8379310;28;19932;-74
2023/01/15 12:28:24;;;;;;;;;;;6.80;99.90;;;;;;8376647;28;20322;-75
2023/01/15 12:32:32;;;;;;;;;;;6.60;99.90;;;;;;8388769;28;19931;-75
2023/01/15 12:36:39;;;;;;;;;;;6.50;99.90;;;;;;8388798;28;19924;-74
2023/01/15 12:40:49;;;;;;;;;;;6.50;99.90;;;;;;8379409;28;19967;-75
2023/01/15 12:45:06;;;;;;;;;;;6.50;99.90;;;;;;8389528;28;19991;-75
2023/01/15 12:49:27;;;;;;;;;;;6.50;99.90;;;;;;8388912;28;20392;-74
2023/01/15 12:53:42;;;;;;;;;;;6.40;99.90;;;;;;8396696;28;19935;-74
2023/01/15 12:57:49;;;;;;;;;;;6.40;99.90;;;;;;8385472;28;20339;-74
2023/01/15 13:01:51;;;;;;;;;;;6.40;99.90;;;;;;8374049;28;19924;-75
2023/01/15 13:05:56;;;;;;;;;;;6.60;99.90;;;;;;8394380;28;19924;-74
2023/01/15 13:10:06;;;;;;;;;;;6.70;99.90;;;;;;8386634;28;19924;-75
2023/01/15 13:14:13;;;;;;;;;;;6.80;99.90;;;;;;8377432;28;20337;-74
2023/01/15 13:18:24;;;;;;;;;;;6.90;99.90;;;;;;8385745;28;19960;-74
2023/01/15 13:22:28;;;;;;;;;;;7.00;99.90;;;;;;8385696;28;19930;-75
2023/01/15 13:26:47;;;;;;;;;;;6.80;99.90;;;;;;8387750;28;19959;-75
2023/01/15 13:30:55;;;;;;;;;;;6.50;99.90;;;;;;8380379;28;19968;-75
2023/01/15 13:35:09;;;;;;;;;;;6.40;99.90;;;;;;8382214;28;20370;-74
2023/01/15 13:39:22;;;;;;;;;;;6.30;99.90;;;;;;8369378;28;19924;-75
2023/01/15 13:43:26;;;;;;;;;;;6.30;99.90;;;;;;8393673;28;20299;-74
2023/01/15 13:47:30;;;;;;;;;;;6.30;99.90;;;;;;8390111;28;19925;-74
2023/01/15 13:51:38;;;;;;;;;;;6.30;99.90;;;;;;8371242;28;19972;-75
2023/01/15 13:55:42;;;;;;;;;;;6.30;99.90;;;;;;8385541;28;20400;-75
2023/01/15 13:59:44;;;;;;;;;;;6.40;99.90;;;;;;8384005;28;19978;-74
2023/01/15 14:04:03;;;;;;;;;;;6.50;99.90;;;;;;8383900;28;19929;-74
2023/01/15 14:08:14;;;;;;;;;;;6.50;99.90;;;;;;8398401;28;20400;-75
2023/01/15 14:12:19;;;;;;;;;;;6.60;99.90;;;;;;8392049;28;19924;-75
2023/01/15 14:16:40;;;;;;;;;;;6.50;99.90;;;;;;8389429;28;20316;-74
2023/01/15 14:20:48;;;;;;;;;;;6.50;99.90;;;;;;8385522;28;20462;-75
2023/01/15 14:24:59;;;;;;;;;;;6.60;99.90;;;;;;8393902;28;19935;-75
2023/01/15 14:29:36;;;;;;;;;;;6.70;99.90;;;;;;8370649;28;19931;-74
2023/01/15 14:33:44;;;;;;;;;;;6.80;99.90;;;;;;8289498;28;20474;-74
2023/01/15 14:37:53;;;;;;;;;;;6.80;99.90;;;;;;8378580;28;19971;-75
2023/01/15 14:46:34;;;;;;;;;;;6.60;99.90;;;;;;8362474;28;19932;-74
2023/01/15 14:50:39;;;;;;;;;;;6.70;99.90;;;;;;8350715;28;20319;-75
2023/01/15 14:54:42;;;;;;;;;;;6.70;99.90;;;;;;8355675;28;19962;-75
2023/01/15 14:58:46;;;;;;;;;;;6.70;99.90;;;;;;8356198;28;19929;-75
2023/01/15 15:02:49;;;;;;;;;;;6.80;99.90;;;;;;8353188;28;19924;-75
2023/01/15 15:06:53;;;;;;;;;;;6.80;99.90;;;;;;8354444;28;19967;-74
2023/01/15 15:10:57;;;;;;;;;;;6.90;99.90;;;;;;8352749;28;20284;-74
2023/01/15 15:14:58;;;;;;;;;;;6.90;99.90;;;;;;8352989;28;19956;-75
2023/01/15 15:19:12;;;;;;;;;;;6.90;99.90;;;;;;8369317;28;19925;-74
2023/01/15 15:23:26;;;;;;;;;;;6.90;99.90;;;;;;8371533;28;19928;-74
2023/01/15 15:27:28;;;;;;;;;;;6.80;99.90;;;;;;8352732;28;19928;-75
2023/01/15 15:31:31;;;;;;;;;;;6.80;99.90;;;;;;8356761;28;19932;-75
2023/01/15 15:35:36;;;;;;;;;;;6.60;99.90;;;;;;8344714;28;20360;-75
2023/01/15 15:39:47;;;;;;;;;;;6.30;99.90;;;;;;8360983;28;19929;-75
2023/01/15 15:52:42;;;;;;;;;;;5.90;99.90;;;;;;8366390;28;19940;-75
2023/01/15 15:56:56;;;;;;;;;;;5.80;99.90;;;;;;8358902;28;19924;-75
2023/01/15 16:00:59;;;;;;;;;;;5.60;99.90;;;;;;8361835;28;20293;-75
2023/01/15 16:05:18;;;;;;;;;;;5.40;99.90;;;;;;8357358;28;19929;-75
2023/01/15 16:09:20;;;;;;;;;;;5.40;99.90;;;;;;8365817;28;22147;-75
2023/01/15 16:13:32;;;;;;;;;;;5.40;99.90;;;;;;8373659;28;19928;-74
2023/01/15 16:17:35;;;;;;;;;;;5.40;99.90;;;;;;8361495;28;19986;-74
2023/01/15 16:21:38;;;;;;;;;;;5.40;99.90;;;;;;8359090;28;19932;-74
2023/01/15 16:25:41;;;;;;;;;;;5.30;99.90;;;;;;8369063;28;19971;-73
2023/01/15 16:29:47;;;;;;;;;;;5.40;99.90;;;;;;8364008;28;19932;-73
2023/01/15 16:33:54;;;;;;;;;;;5.40;99.90;;;;;;8375513;28;20369;-73
2023/01/15 16:37:57;;;;;;;;;;;5.50;99.90;;;;;;8357029;28;19975;-74
2023/01/15 16:42:01;;;;;;;;;;;5.60;99.90;;;;;;8354411;28;19936;-73
2023/01/15 16:46:05;;;;;;;;;;;5.60;99.90;;;;;;8365983;28;19972;-74
2023/01/15 16:50:23;;;;;;;;;;;5.60;99.90;;;;;;8343383;28;19924;-73
2023/01/15 16:54:30;;;;;;;;;;;5.70;99.90;;;;;;8358093;28;19932;-74
2023/01/15 16:58:34;;;;;;;;;;;5.60;99.90;;;;;;8358725;28;19932;-73
2023/01/15 17:02:44;;;;;;;;;;;5.60;99.90;;;;;;8339479;28;19932;-74
2023/01/15 17:06:57;;;;;;;;;;;5.60;99.90;;;;;;8339205;28;20563;-74
2023/01/15 17:11:01;;;;;;;;;;;5.60;99.90;;;;;;8337082;28;20655;-73
2023/01/15 17:15:14;;;;;;;;;;;5.60;99.90;;;;;;8358801;28;19924;-73
2023/01/15 17:19:16;;;;;;;;;;;5.60;99.90;;;;;;8361457;28;19925;-74
2023/01/15 17:23:20;;;;;;;;;;;5.60;99.90;;;;;;8381573;28;19968;-74
2023/01/15 17:27:22;;;;;;;;;;;5.60;99.90;;;;;;8353692;28;19929;-73
2023/01/15 17:31:29;;;;;;;;;;;5.50;99.90;;;;;;8357395;28;19987;-74
2023/01/15 17:35:37;;;;;;;;;;;5.50;99.90;;;;;;8363557;28;19924;-74
2023/01/15 17:39:39;;;;;;;;;;;5.50;99.90;;;;;;8364895;28;20280;-73
2023/01/15 17:43:41;;;;;;;;;;;5.50;99.90;;;;;;8370640;28;19925;-73
2023/01/15 17:47:42;;;;;;;;;;;5.40;99.90;;;;;;8369069;28;19936;-74
2023/01/15 17:51:44;;;;;;;;;;;5.40;99.90;;;;;;8376217;28;19929;-74
2023/01/15 18:09:07;;;;;;;;;;;5.40;99.90;;;;;;8361239;28;20027;-74
2023/01/15 18:13:11;;;;;;;;;;;5.40;99.90;;;;;;8341781;28;20381;-73
2023/01/15 18:17:13;;;;;;;;;;;5.40;99.90;;;;;;8362567;28;20336;-74
2023/01/15 18:21:17;;;;;;;;;;;5.40;99.90;;;;;;8353696;28;19924;-73
2023/01/15 18:25:22;;;;;;;;;;;5.40;99.90;;;;;;8359397;28;19933;-74
2023/01/15 18:29:27;;;;;;;;;;;5.40;99.90;;;;;;8353362;28;19932;-73
2023/01/15 18:33:29;;;;;;;;;;;5.40;99.90;;;;;;8365710;28;20028;-73
2023/01/15 18:37:31;;;;;;;;;;;5.40;99.90;;;;;;8366716;28;19959;-73
2023/01/15 18:49:58;;;;;;;;;;;5.30;99.90;;;;;;8370649;28;19933;-73
2023/01/15 18:53:59;;;;;;;;;;;5.30;99.90;;;;;;8358846;28;19925;-74
2023/01/15 18:58:01;;;;;;;;;;;5.20;99.90;;;;;;8352266;28;19929;-74
2023/01/15 19:02:03;;;;;;;;;;;5.20;99.90;;;;;;8367079;28;19932;-73
2023/01/15 19:06:05;;;;;;;;;;;5.10;99.90;;;;;;8358713;28;19932;-74
2023/01/15 19:10:07;;;;;;;;;;;5.10;99.90;;;;;;8371386;28;19924;-74
2023/01/15 19:18:41;;;;;;;;;;;5.00;99.90;;;;;;8362545;28;19929;-74
2023/01/15 19:22:58;;;;;;;;;;;5.00;99.90;;;;;;8349354;28;19929;-73
2023/01/15 19:27:03;;;;;;;;;;;4.90;99.90;;;;;;8358900;28;19931;-73
2023/01/15 19:35:28;;;;;;;;;;;4.90;99.90;;;;;;8358372;28;20380;-74
2023/01/15 19:39:30;;;;;;;;;;;4.80;99.90;;;;;;8361168;28;19932;-74
2023/01/15 19:56:32;;;;;;;;;;;4.70;99.90;;;;;;8357294;28;19975;-73
2023/01/15 20:00:35;;;;;;;;;;;4.70;99.90;;;;;;8356170;28;19940;-73
2023/01/15 20:04:37;;;;;;;;;;;4.70;99.90;;;;;;8359340;28;19925;-73
2023/01/15 20:08:39;;;;;;;;;;;4.70;99.90;;;;;;8359462;28;19932;-73
2023/01/15 20:17:01;;;;;;;;;;;4.60;99.90;;;;;;8357775;28;19925;-73
2023/01/15 20:21:03;;;;;;;;;;;4.60;99.90;;;;;;8353044;28;20388;-73
2023/01/15 20:25:05;;;;;;;;;;;4.60;99.90;;;;;;8351188;28;19933;-74
2023/01/15 20:29:07;;;;;;;;;;;4.60;99.90;;;;;;8352003;28;19925;-74
2023/01/15 20:33:08;;;;;;;;;;;4.60;99.90;;;;;;8356129;28;19964;-74
2023/01/15 20:37:10;;;;;;;;;;;4.60;99.90;;;;;;8361239;28;19928;-74
2023/01/15 20:45:33;;;;;;;;;;;4.60;99.90;;;;;;8358474;28;19925;-74
2023/01/15 20:49:34;;;;;;;;;;;4.60;99.90;;;;;;8361000;28;20013;-74
2023/01/15 20:53:37;;;;;;;;;;;4.50;99.90;;;;;;8365239;28;20297;-74
2023/01/15 20:57:39;;;;;;;;;;;4.50;99.90;;;;;;8367564;28;19936;-74
2023/01/15 21:01:41;;;;;;;;;;;4.50;99.90;;;;;;8354899;28;19956;-74
2023/01/15 21:05:43;;;;;;;;;;;4.50;99.90;;;;;;8379465;28;19944;-74
2023/01/15 21:09:45;;;;;;;;;;;4.50;99.90;;;;;;8358351;28;19929;-73
2023/01/15 21:13:46;;;;;;;;;;;4.50;99.90;;;;;;8362540;28;19952;-74
2023/01/15 21:17:48;;;;;;;;;;;4.60;99.90;;;;;;8364754;28;19964;-74
2023/01/15 21:21:50;;;;;;;;;;;4.60;99.90;;;;;;8363484;28;19964;-74
2023/01/15 21:25:57;;;;;;;;;;;4.70;99.90;;;;;;8361928;28;19928;-74
2023/01/15 21:29:59;;;;;;;;;;;4.70;99.90;;;;;;8362086;28;19928;-74
2023/01/15 21:34:00;;;;;;;;;;;4.80;99.90;;;;;;8362684;28;19928;-74
2023/01/15 21:38:02;;;;;;;;;;;4.80;99.90;;;;;;8381675;28;19924;-74
2023/01/15 21:46:27;;;;;;;;;;;4.90;99.90;;;;;;8355485;28;19978;-74
2023/01/15 21:50:29;;;;;;;;;;;4.90;99.90;;;;;;8353227;28;19939;-74
2023/01/15 21:54:31;;;;;;;;;;;5.00;99.90;;;;;;8363317;28;19931;-74
2023/01/15 21:58:38;;;;;;;;;;;5.00;99.90;;;;;;8356768;28;20200;-74
2023/01/15 22:02:39;;;;;;;;;;;5.00;99.90;;;;;;8374454;28;19932;-74
2023/01/15 22:06:41;;;;;;;;;;;5.10;99.90;;;;;;8384163;28;19932;-74
2023/01/15 22:10:43;;;;;;;;;;;5.10;99.90;;;;;;8371210;28;19947;-74
2023/01/15 22:14:45;;;;;;;;;;;5.10;99.90;;;;;;8373616;28;19935;-74
2023/01/15 22:18:49;;;;;;;;;;;5.10;99.90;;;;;;8384940;28;20287;-74
2023/01/15 22:22:50;;;;;;;;;;;5.20;99.90;;;;;;8386804;28;19967;-74
2023/01/15 22:26:56;;;;;;;;;;;5.20;99.90;;;;;;8400155;28;19925;-74
2023/01/15 22:36:01;;;;;;;;;;;5.20;99.90;;;;;;8391490;28;19975;-74
2023/01/15 22:40:03;;;;;;;;;;;5.20;99.90;;;;;;8388075;28;19929;-74
2023/01/15 22:44:06;;;;;;;;;;;5.30;99.90;;;;;;8413700;28;19961;-75
2023/01/15 22:48:09;;;;;;;;;;;5.30;99.90;;;;;;8369366;28;19930;-74
2023/01/15 22:52:11;;;;;;;;;;;5.30;99.90;;;;;;8390269;28;20296;-74
2023/01/15 22:56:13;;;;;;;;;;;5.30;99.90;;;;;;8353479;28;19971;-74
2023/01/15 23:00:15;;;;;;;;;;;5.30;99.90;;;;;;8397152;28;19971;-74
2023/01/15 23:04:18;;;;;;;;;;;5.40;99.90;;;;;;8391196;28;19924;-74
2023/01/15 23:08:20;;;;;;;;;;;5.40;99.90;;;;;;8376535;28;19955;-74
2023/01/15 23:12:22;;;;;;;;;;;5.40;99.90;;;;;;8381660;28;20281;-74
2023/01/15 23:16:23;;;;;;;;;;;5.40;99.90;;;;;;8384946;28;19947;-74
2023/01/15 23:20:25;;;;;;;;;;;5.40;99.90;;;;;;8403007;28;19932;-74
2023/01/15 23:24:27;;;;;;;;;;;5.40;99.90;;;;;;8367056;28;20225;-74
2023/01/15 23:28:28;;;;;;;;;;;5.40;99.90;;;;;;8388057;28;20398;-74
2023/01/15 23:32:30;;;;;;;;;;;5.40;99.90;;;;;;8385197;28;19932;-74
2023/01/15 23:36:32;;;;;;;;;;;5.40;99.90;;;;;;8362575;28;19925;-74
2023/01/15 23:40:33;;;;;;;;;;;5.40;99.90;;;;;;8386994;28;19928;-74
2023/01/15 23:48:55;;;;;;;;;;;5.30;99.90;;;;;;8384382;28;20368;-75
2023/01/15 23:52:57;;;;;;;;;;;5.30;99.90;;;;;;8387760;28;19990;-74
2023/01/15 23:56:59;;;;;;;;;;;5.20;99.90;;;;;;8396639;28;20277;-75
